Janika — V2YK9 — position and weather

sailwx.info

Track history (hours):
 
Tides and Currents Weather Stations Pressure Air Temp Water Temp Dewpoint Dewpoint Depression Visibility Wind Speed Wind Dir Waves Ship Positions

Janika

Last reported at 2015-Aug-25 19:26 UTC. Time now 2015-Sep-02 14:53 UTC.
Position N 17°07' W 061°46'.

; draft 2.6 m.

Type: Tug. MMSI: 305732000.

Date/timePositionNaut miles runAvg speedWind from/ knotsBaromVisibWave heightAir tempDewpointWater temp
2015-Aug-25 19:26N 17°07' W 061°46'0 0.0
2015-Aug-25 18:33N 17°07' W 061°46'0 0.0
2015-Aug-25 17:34N 17°07' W 061°46'0 0.0
2015-Aug-25 16:34N 17°07' W 061°46'0 0.0
2015-Aug-25 15:33N 17°07' W 061°46'0 0.0
2015-Aug-25 14:34N 17°07' W 061°46'0 0.0
2015-Aug-25 13:34N 17°07' W 061°46'0 0.0
2015-Aug-25 12:33N 17°07' W 061°46'0 0.0
2015-Aug-25 11:34N 17°07' W 061°46'0 0.0
2015-Aug-25 10:33N 17°07' W 061°46'0 0.0
2015-Aug-25 09:34N 17°07' W 061°46'0 0.0
2015-Aug-25 08:33N 17°07' W 061°46'0 0.0
2015-Aug-25 07:33N 17°07' W 061°46'0 0.0
2015-Aug-25 06:34N 17°07' W 061°46'0 0.0
2015-Aug-25 05:34N 17°07' W 061°46'0 0.0
2015-Aug-25 04:34N 17°07' W 061°46'0 0.0
2015-Aug-25 03:33N 17°07' W 061°46'0 0.0
2015-Aug-25 02:34N 17°07' W 061°46'0 0.0
2015-Aug-25 01:33N 17°07' W 061°46'0 0.0
2015-Aug-25 00:33N 17°07' W 061°46'0 0.0
2015-Aug-24 23:33N 17°07' W 061°46'0 0.0
2015-Aug-24 22:34N 17°07' W 061°46'0 0.0
2015-Aug-24 21:33N 17°07' W 061°46'0 0.0
2015-Aug-24 20:33N 17°07' W 061°46'0 0.0
2015-Aug-24 19:34N 17°07' W 061°46'0 0.0
2015-Aug-24 18:33N 17°07' W 061°46'0 0.0
2015-Aug-24 17:33N 17°07' W 061°46'0 0.0
2015-Aug-24 16:33N 17°07' W 061°46'0 0.0
2015-Aug-24 15:33N 17°07' W 061°46'0 0.0
2015-Aug-24 06:10N 17°07' W 061°46'0 0.0
2015-Aug-24 05:33N 17°07' W 061°46'0 0.0
2015-Aug-24 04:33N 17°07' W 061°46'0 0.0
2015-Aug-24 03:33N 17°07' W 061°46'0 0.0
2015-Aug-24 02:33N 17°07' W 061°46'0 0.0
2015-Aug-24 01:33N 17°07' W 061°46'0 0.0
2015-Aug-24 00:33N 17°07' W 061°46'0 0.0
2015-Aug-23 23:33N 17°07' W 061°46'0 0.0
2015-Aug-23 22:33N 17°07' W 061°46'0 0.0
2015-Aug-23 21:33N 17°07' W 061°46'0 0.0
2015-Aug-23 20:33N 17°07' W 061°46'0 0.0
2015-Aug-23 19:33N 17°07' W 061°46'6 6.0
2015-Aug-23 18:33N 17°11' W 061°51'3 2.9
2015-Aug-23 17:33N 17°08' W 061°53'2 1.5
2015-Aug-23 16:33N 17°07' W 061°51'0 0.0
2015-Aug-23 15:33N 17°07' W 061°51'0 0.0
2015-Aug-23 14:33N 17°07' W 061°51'0 0.0
2015-Aug-23 13:33N 17°07' W 061°51'0 0.0
2015-Aug-23 12:33N 17°07' W 061°51'0 0.0
2015-Aug-23 11:33N 17°07' W 061°51'0 0.0
2015-Aug-23 10:33N 17°07' W 061°51'0 0.0
2015-Aug-23 09:33N 17°07' W 061°51'0 0.0
2015-Aug-23 08:33N 17°07' W 061°51'0 0.0
2015-Aug-23 07:33N 17°07' W 061°51'0 0.0
2015-Aug-23 06:33N 17°07' W 061°51'0 0.0
2015-Aug-23 05:33N 17°07' W 061°51'0 0.0
2015-Aug-23 04:33N 17°07' W 061°51'0 0.0
2015-Aug-23 03:33N 17°07' W 061°51'0 0.0
2015-Aug-23 02:33N 17°07' W 061°51'0 0.0
2015-Aug-23 01:33N 17°07' W 061°51'0 0.0
2015-Aug-22 23:33N 17°07' W 061°51'0 0.0
2015-Aug-22 22:33N 17°07' W 061°51'0 0.0
2015-Aug-22 21:33N 17°07' W 061°51'0 0.0
2015-Aug-22 20:33N 17°07' W 061°51'0 0.0
2015-Aug-22 19:33N 17°07' W 061°51'0 0.0
2015-Aug-22 18:33N 17°07' W 061°51'0 0.0
2015-Aug-22 17:33N 17°07' W 061°51'1 1.3
2015-Aug-22 16:33N 17°08' W 061°52'1 0.9
2015-Aug-22 15:33N 17°09' W 061°52'1 1.3
2015-Aug-22 14:33N 17°08' W 061°52'1 0.8
2015-Aug-22 13:33N 17°07' W 061°51'0 0.0
2015-Aug-22 12:33N 17°07' W 061°51'0 0.0
2015-Aug-22 11:33N 17°07' W 061°51'0 0.0
2015-Aug-22 10:33N 17°07' W 061°51'0 0.0
2015-Aug-22 09:34N 17°07' W 061°51'0 0.0
2015-Aug-22 08:33N 17°07' W 061°51'0 0.0
2015-Aug-22 07:33N 17°07' W 061°51'0 0.0
2015-Aug-22 06:33N 17°07' W 061°51'0 0.0
2015-Aug-22 05:33N 17°07' W 061°51'0 0.0
2015-Aug-22 04:33N 17°07' W 061°51'0 0.0
2015-Aug-22 03:33N 17°07' W 061°51'0 0.0
2015-Aug-22 02:33N 17°07' W 061°51'0 0.0
2015-Aug-22 01:33N 17°07' W 061°51'0 0.0
2015-Aug-22 00:33N 17°07' W 061°51'0 0.0
2015-Aug-21 23:33N 17°07' W 061°51'0 0.0
2015-Aug-21 22:33N 17°07' W 061°51'0 0.0
2015-Aug-21 21:33N 17°07' W 061°51'0 0.0
2015-Aug-21 20:33N 17°07' W 061°51'2 1.7
2015-Aug-21 19:34N 17°09' W 061°52'2 1.7
2015-Aug-21 18:33N 17°07' W 061°51'0 0.0
2015-Aug-21 17:33N 17°07' W 061°51'0 0.0
2015-Aug-21 16:33N 17°07' W 061°51'2 2.3
2015-Aug-21 15:33N 17°09' W 061°53'4 4.4
2015-Aug-21 14:34N 17°11' W 061°49'5 4.5
2015-Aug-21 13:33N 17°07' W 061°46'  
Track history (hours):
 
Tides and Currents Weather Stations Pressure Air Temp Water Temp Dewpoint Dewpoint Depression Visibility Wind Speed Wind Dir Waves Ship Positions

Janika

Last reported at 2015-Aug-25 19:26 UTC. Time now 2015-Sep-02 14:53 UTC.
Position N 17°07' W 061°46'.

; draft 2.6 m.

Type: Tug. MMSI: 305732000.

Date/timePositionNaut miles runAvg speedWind from/ knotsBaromVisibWave heightAir tempDewpointWater temp
2015-Aug-25 19:26N 17°07' W 061°46'0 0.0
2015-Aug-25 18:33N 17°07' W 061°46'0 0.0
2015-Aug-25 17:34N 17°07' W 061°46'0 0.0
2015-Aug-25 16:34N 17°07' W 061°46'0 0.0
2015-Aug-25 15:33N 17°07' W 061°46'0 0.0
2015-Aug-25 14:34N 17°07' W 061°46'0 0.0
2015-Aug-25 13:34N 17°07' W 061°46'0 0.0
2015-Aug-25 12:33N 17°07' W 061°46'0 0.0
2015-Aug-25 11:34N 17°07' W 061°46'0 0.0
2015-Aug-25 10:33N 17°07' W 061°46'0 0.0
2015-Aug-25 09:34N 17°07' W 061°46'0 0.0
2015-Aug-25 08:33N 17°07' W 061°46'0 0.0
2015-Aug-25 07:33N 17°07' W 061°46'0 0.0
2015-Aug-25 06:34N 17°07' W 061°46'0 0.0
2015-Aug-25 05:34N 17°07' W 061°46'0 0.0
2015-Aug-25 04:34N 17°07' W 061°46'0 0.0
2015-Aug-25 03:33N 17°07' W 061°46'0 0.0
2015-Aug-25 02:34N 17°07' W 061°46'0 0.0
2015-Aug-25 01:33N 17°07' W 061°46'0 0.0
2015-Aug-25 00:33N 17°07' W 061°46'0 0.0
2015-Aug-24 23:33N 17°07' W 061°46'0 0.0
2015-Aug-24 22:34N 17°07' W 061°46'0 0.0
2015-Aug-24 21:33N 17°07' W 061°46'0 0.0
2015-Aug-24 20:33N 17°07' W 061°46'0 0.0
2015-Aug-24 19:34N 17°07' W 061°46'0 0.0
2015-Aug-24 18:33N 17°07' W 061°46'0 0.0
2015-Aug-24 17:33N 17°07' W 061°46'0 0.0
2015-Aug-24 16:33N 17°07' W 061°46'0 0.0
2015-Aug-24 15:33N 17°07' W 061°46'0 0.0
2015-Aug-24 06:10N 17°07' W 061°46'0 0.0
2015-Aug-24 05:33N 17°07' W 061°46'0 0.0
2015-Aug-24 04:33N 17°07' W 061°46'0 0.0
2015-Aug-24 03:33N 17°07' W 061°46'0 0.0
2015-Aug-24 02:33N 17°07' W 061°46'0 0.0
2015-Aug-24 01:33N 17°07' W 061°46'0 0.0
2015-Aug-24 00:33N 17°07' W 061°46'0 0.0
2015-Aug-23 23:33N 17°07' W 061°46'0 0.0
2015-Aug-23 22:33N 17°07' W 061°46'0 0.0
2015-Aug-23 21:33N 17°07' W 061°46'0 0.0
2015-Aug-23 20:33N 17°07' W 061°46'0 0.0
2015-Aug-23 19:33N 17°07' W 061°46'6 6.0
2015-Aug-23 18:33N 17°11' W 061°51'3 2.9
2015-Aug-23 17:33N 17°08' W 061°53'2 1.5
2015-Aug-23 16:33N 17°07' W 061°51'0 0.0
2015-Aug-23 15:33N 17°07' W 061°51'0 0.0
2015-Aug-23 14:33N 17°07' W 061°51'0 0.0
2015-Aug-23 13:33N 17°07' W 061°51'0 0.0
2015-Aug-23 12:33N 17°07' W 061°51'0 0.0
2015-Aug-23 11:33N 17°07' W 061°51'0 0.0
2015-Aug-23 10:33N 17°07' W 061°51'0 0.0
2015-Aug-23 09:33N 17°07' W 061°51'0 0.0
2015-Aug-23 08:33N 17°07' W 061°51'0 0.0
2015-Aug-23 07:33N 17°07' W 061°51'0 0.0
2015-Aug-23 06:33N 17°07' W 061°51'0 0.0
2015-Aug-23 05:33N 17°07' W 061°51'0 0.0
2015-Aug-23 04:33N 17°07' W 061°51'0 0.0
2015-Aug-23 03:33N 17°07' W 061°51'0 0.0
2015-Aug-23 02:33N 17°07' W 061°51'0 0.0
2015-Aug-23 01:33N 17°07' W 061°51'0 0.0
2015-Aug-22 23:33N 17°07' W 061°51'0 0.0
2015-Aug-22 22:33N 17°07' W 061°51'0 0.0
2015-Aug-22 21:33N 17°07' W 061°51'0 0.0
2015-Aug-22 20:33N 17°07' W 061°51'0 0.0
2015-Aug-22 19:33N 17°07' W 061°51'0 0.0
2015-Aug-22 18:33N 17°07' W 061°51'0 0.0
2015-Aug-22 17:33N 17°07' W 061°51'1 1.3
2015-Aug-22 16:33N 17°08' W 061°52'1 0.9
2015-Aug-22 15:33N 17°09' W 061°52'1 1.3
2015-Aug-22 14:33N 17°08' W 061°52'1 0.8
2015-Aug-22 13:33N 17°07' W 061°51'0 0.0
2015-Aug-22 12:33N 17°07' W 061°51'0 0.0
2015-Aug-22 11:33N 17°07' W 061°51'0 0.0
2015-Aug-22 10:33N 17°07' W 061°51'0 0.0
2015-Aug-22 09:34N 17°07' W 061°51'0 0.0
2015-Aug-22 08:33N 17°07' W 061°51'0 0.0
2015-Aug-22 07:33N 17°07' W 061°51'0 0.0
2015-Aug-22 06:33N 17°07' W 061°51'0 0.0
2015-Aug-22 05:33N 17°07' W 061°51'0 0.0
2015-Aug-22 04:33N 17°07' W 061°51'0 0.0
2015-Aug-22 03:33N 17°07' W 061°51'0 0.0
2015-Aug-22 02:33N 17°07' W 061°51'0 0.0
2015-Aug-22 01:33N 17°07' W 061°51'0 0.0
2015-Aug-22 00:33N 17°07' W 061°51'0 0.0
2015-Aug-21 23:33N 17°07' W 061°51'0 0.0
2015-Aug-21 22:33N 17°07' W 061°51'0 0.0
2015-Aug-21 21:33N 17°07' W 061°51'0 0.0
2015-Aug-21 20:33N 17°07' W 061°51'2 1.7
2015-Aug-21 19:34N 17°09' W 061°52'2 1.7
2015-Aug-21 18:33N 17°07' W 061°51'0 0.0
2015-Aug-21 17:33N 17°07' W 061°51'0 0.0
2015-Aug-21 16:33N 17°07' W 061°51'2 2.3
2015-Aug-21 15:33N 17°09' W 061°53'4 4.4
2015-Aug-21 14:34N 17°11' W 061°49'5 4.5
2015-Aug-21 13:33N 17°07' W 061°46'  

Dump ship's entire track history